Time;durP1;ratioP1;P1;durP2;ratioP2;P2;SDS_P1;SDS_P2;PMS_P1;PMS_P2;Temp;Humidity;BMP_temperature;BMP_pressure;BME280_temperature;BME280_humidity;BME280_pressure;Samples;Min_cycle;Max_cycle;Signal;HPM_P1;HPM_P2
2023/01/04 06:20:45;;;;;;;;;;;;;;;6.93;74.02;99096.03;4988632;24;19952;-65
2023/01/04 06:23:10;;;;;;;;;;;;;;;6.64;74.09;99098.03;4859049;29;20289;-65
2023/01/04 06:25:36;;;;;;;;;;;;;;;6.37;74.99;99094.69;4859895;29;19920;-66
2023/01/04 06:28:01;;;;;;;;;;;;;;;6.18;76.23;99088.47;4872151;29;19932;-67
2023/01/04 06:30:27;;;;;;;;;;;;;;;6.02;76.04;99088.19;4860876;29;19922;-65
2023/01/04 06:32:53;;;;;;;;;;;;;;;5.88;77.19;99080.84;4855577;29;19921;-64
2023/01/04 06:35:18;;;;;;;;;;;;;;;5.75;77.72;99071.75;4861682;29;20030;-65
2023/01/04 06:37:43;;;;;;;;;;;;;;;5.69;78.55;99074.56;4857837;29;20010;-66
2023/01/04 06:40:08;;;;;;;;;;;;;;;5.64;78.65;99071.25;4854945;29;20018;-67
2023/01/04 06:42:45;;;;;;;;;;;;;;;5.59;78.27;99067.97;4854014;29;20027;-66
2023/01/04 06:45:11;;;;;;;;;;;;;;;5.52;79.02;99071.69;4857930;29;19968;-66
2023/01/04 06:47:37;;;;;;;;;;;;;;;5.44;79.18;99065.00;4857962;29;19924;-66
2023/01/04 06:50:03;;;;;;;;;;;;;;;5.37;79.72;99063.53;4859275;29;19946;-66
2023/01/04 06:52:28;;;;;;;;;;;;;;;5.32;79.92;99055.00;4861108;29;19916;-66
2023/01/04 06:54:53;;;;;;;;;;;;;;;5.29;80.29;99049.91;4856799;29;19928;-67
2023/01/04 06:57:19;;;;;;;;;;;;;;;5.22;80.60;99057.06;4859713;29;20018;-66
2023/01/04 06:59:44;;;;;;;;;;;;;;;5.23;80.41;99053.56;4853105;29;19920;-67
2023/01/04 07:02:12;;;;;;;;;;;;;;;5.23;81.00;99050.97;4858851;29;19969;-66
2023/01/04 07:04:37;;;;;;;;;;;;;;;5.26;81.21;99043.94;4858619;29;20373;-66
2023/01/04 07:07:02;;;;;;;;;;;;;;;5.26;81.47;99044.78;4859693;29;19921;-67
2023/01/04 07:09:27;;;;;;;;;;;;;;;5.26;81.14;99044.78;4859287;29;19928;-67
2023/01/04 07:11:53;;;;;;;;;;;;;;;5.28;81.70;99043.00;4846029;29;19920;-67
2023/01/04 07:14:18;;;;;;;;;;;;;;;5.33;81.46;99041.09;4848322;29;19946;-66
2023/01/04 07:16:43;;;;;;;;;;;;;;;5.37;81.67;99031.47;4855157;29;20051;-67
2023/01/04 07:19:08;;;;;;;;;;;;;;;5.41;81.41;99033.88;4856802;29;19952;-64
2023/01/04 07:21:33;;;;;;;;;;;;;;;5.46;81.09;99026.75;4856802;29;19928;-64
2023/01/04 07:23:59;;;;;;;;;;;;;;;5.52;81.00;99030.91;4858405;29;19924;-67
2023/01/04 07:26:24;;;;;;;;;;;;;;;5.57;81.23;99033.34;4860371;29;20004;-66
2023/01/04 07:31:33;;;;;;;;;;;;;;;5.67;80.75;99024.31;4859888;29;19939;-67
2023/01/04 07:33:58;;;;;;;;;;;;;;;5.69;80.46;99022.50;4858582;29;20381;-66
2023/01/04 07:36:23;;;;;;;;;;;;;;;5.72;80.34;99017.19;4860829;29;20288;-67
2023/01/04 07:38:48;;;;;;;;;;;;;;;5.76;80.42;99020.53;4857930;29;20281;-65
2023/01/04 07:41:14;;;;;;;;;;;;;;;5.80;80.20;99015.16;4858467;29;19942;-67
2023/01/04 07:43:39;;;;;;;;;;;;;;;5.83;79.87;99022.84;4859340;29;19923;-72
2023/01/04 07:46:04;;;;;;;;;;;;;;;5.83;80.12;99022.84;4855452;29;20027;-71
2023/01/04 07:48:29;;;;;;;;;;;;;;;5.86;79.88;99019.31;4853880;29;20289;-69
2023/01/04 07:50:54;;;;;;;;;;;;;;;5.88;79.80;99025.28;4855488;29;19952;-68
2023/01/04 07:53:20;;;;;;;;;;;;;;;5.87;80.21;99016.63;4856383;29;20639;-68
2023/01/04 07:55:45;;;;;;;;;;;;;;;5.89;79.78;99014.84;4855625;29;19921;-67
2023/01/04 07:58:10;;;;;;;;;;;;;;;5.90;80.12;99019.13;4858708;29;19972;-66
2023/01/04 08:00:35;;;;;;;;;;;;;;;5.87;80.36;99016.63;4855785;29;19932;-66
2023/01/04 08:03:00;;;;;;;;;;;;;;;5.81;81.07;99014.25;4850146;29;19923;-65
2023/01/04 08:05:26;;;;;;;;;;;;;;;5.83;80.84;99012.44;4853135;29;19920;-68
2023/01/04 08:07:51;;;;;;;;;;;;;;;5.86;80.79;99001.91;4841579;29;21082;-68
2023/01/04 08:10:16;;;;;;;;;;;;;;;5.92;81.03;99003.47;4859547;29;19969;-68
2023/01/04 08:12:41;;;;;;;;;;;;;;;5.94;80.66;99002.50;4853040;29;19927;-68
2023/01/04 08:15:07;;;;;;;;;;;;;;;6.00;80.97;98998.00;4856118;29;19920;-68
2023/01/04 08:17:32;;;;;;;;;;;;;;;6.06;80.92;98995.16;4860010;29;20010;-69
2023/01/04 08:19:57;;;;;;;;;;;;;;;6.08;81.17;98988.97;4857233;29;19920;-68
2023/01/04 08:22:22;;;;;;;;;;;;;;;6.11;81.40;98990.63;4856984;29;20384;-68
2023/01/04 08:24:48;;;;;;;;;;;;;;;6.15;81.34;98984.38;4856439;29;20169;-68
2023/01/04 08:27:13;;;;;;;;;;;;;;;6.17;82.03;98979.97;4859412;29;19920;-68
2023/01/04 08:29:38;;;;;;;;;;;;;;;6.18;81.84;98964.28;4858078;29;19924;-69
2023/01/04 08:32:03;;;;;;;;;;;;;;;6.20;81.06;98966.84;4858733;29;19928;-68
2023/01/04 08:34:29;;;;;;;;;;;;;;;6.24;80.73;98965.81;4857541;29;19924;-69
2023/01/04 08:36:55;;;;;;;;;;;;;;;6.25;80.66;98975.31;4851535;29;19923;-67
2023/01/04 08:39:20;;;;;;;;;;;;;;;6.22;79.35;98967.59;4853658;29;20384;-67
2023/01/04 08:41:52;;;;;;;;;;;;;;;6.12;80.45;98954.09;4858723;29;19927;-68
2023/01/04 08:44:18;;;;;;;;;;;;;;;6.08;79.68;98951.66;4859700;29;19916;-67
2023/01/04 08:46:43;;;;;;;;;;;;;;;6.09;79.76;98937.72;4855429;29;19980;-68
2023/01/04 08:49:08;;;;;;;;;;;;;;;6.16;80.02;98934.84;4857567;29;19935;-67
2023/01/04 08:51:34;;;;;;;;;;;;;;;6.23;79.57;98918.94;4850561;29;19927;-69
2023/01/04 08:53:59;;;;;;;;;;;;;;;6.32;79.72;98919.44;4857381;29;19920;-66
2023/01/04 08:56:24;;;;;;;;;;;;;;;6.37;79.26;98917.50;4858775;29;19976;-67
2023/01/04 08:58:49;;;;;;;;;;;;;;;6.36;78.76;98912.34;4859318;29;19920;-68
2023/01/04 09:01:14;;;;;;;;;;;;;;;6.45;78.17;98914.59;4858383;29;19923;-67
2023/01/04 09:03:40;;;;;;;;;;;;;;;6.51;78.18;98908.28;4856631;29;19920;-66
2023/01/04 09:06:12;;;;;;;;;;;;;;;6.55;77.32;98905.50;4858313;29;20364;-67
2023/01/04 09:08:37;;;;;;;;;;;;;;;6.59;77.16;98914.03;4853420;29;19931;-67
2023/01/04 09:11:04;;;;;;;;;;;;;;;6.61;76.21;98904.41;4859796;29;19916;-66
2023/01/04 09:13:29;;;;;;;;;;;;;;;6.66;76.04;98912.88;4856488;29;19924;-69
2023/01/04 09:15:54;;;;;;;;;;;;;;;6.65;75.72;98913.78;4857057;29;20252;-67
2023/01/04 09:18:19;;;;;;;;;;;;;;;6.65;75.57;98916.41;4856311;29;19975;-67
2023/01/04 09:20:45;;;;;;;;;;;;;;;6.72;74.38;98911.78;4852039;29;20031;-66
2023/01/04 09:23:10;;;;;;;;;;;;;;;6.73;73.54;98913.47;4858147;29;19923;-71
2023/01/04 09:25:37;;;;;;;;;;;;;;;6.74;73.56;98907.31;4851460;29;19924;-68
2023/01/04 09:28:02;;;;;;;;;;;;;;;6.84;73.77;98906.88;4858294;29;19927;-69
2023/01/04 09:30:30;;;;;;;;;;;;;;;6.85;73.52;98908.59;4856671;29;19935;-69
2023/01/04 09:32:55;;;;;;;;;;;;;;;6.89;72.65;98901.47;4859523;29;20398;-68
2023/01/04 09:35:20;;;;;;;;;;;;;;;6.95;73.14;98892.53;4856670;29;19924;-69
2023/01/04 09:37:46;;;;;;;;;;;;;;;6.95;72.08;98900.34;4853750;29;19928;-68
2023/01/04 09:40:17;;;;;;;;;;;;;;;6.96;72.05;98889.88;4853910;29;19920;-67
2023/01/04 09:42:42;;;;;;;;;;;;;;;6.95;72.12;98895.13;4856730;29;20003;-70
2023/01/04 09:45:07;;;;;;;;;;;;;;;6.98;72.51;98892.41;4850216;29;20056;-69
2023/01/04 09:47:41;;;;;;;;;;;;;;;6.96;72.25;98887.25;4855313;29;20014;-66
2023/01/04 09:50:06;;;;;;;;;;;;;;;7.07;71.01;98895.47;4856691;29;20060;-67
2023/01/04 09:52:39;;;;;;;;;;;;;;;7.14;71.34;98886.47;4857723;29;20006;-69
2023/01/04 09:55:08;;;;;;;;;;;;;;;7.26;69.87;98881.59;4857536;29;20372;-65
2023/01/04 09:57:39;;;;;;;;;;;;;;;7.28;71.02;98898.06;4854447;29;20389;-66
2023/01/04 10:00:09;;;;;;;;;;;;;;;7.33;69.91;98894.34;4855526;29;20011;-66
2023/01/04 10:02:48;;;;;;;;;;;;;;;7.42;70.30;98887.00;4855460;29;19928;-65
2023/01/04 10:05:14;;;;;;;;;;;;;;;7.58;70.24;98882.78;4860442;29;19923;-63
2023/01/04 10:07:40;;;;;;;;;;;;;;;7.68;68.79;98871.00;4859181;29;19972;-66
2023/01/04 10:10:05;;;;;;;;;;;;;;;7.77;69.18;98870.56;4857171;29;19920;-67
2023/01/04 10:12:32;;;;;;;;;;;;;;;7.82;67.22;98878.19;4860317;29;19972;-66
2023/01/04 10:15:15;;;;;;;;;;;;;;;7.74;68.39;98870.72;4861110;29;19920;-65
2023/01/04 10:17:51;;;;;;;;;;;;;;;7.75;68.15;98868.97;4859692;29;20053;-65
2023/01/04 10:20:26;;;;;;;;;;;;;;;7.68;68.61;98857.94;4854618;29;19927;-66
2023/01/04 10:22:54;;;;;;;;;;;;;;;7.64;69.44;98853.78;4859491;29;20315;-65
2023/01/04 10:25:22;;;;;;;;;;;;;;;7.58;69.66;98854.06;4861513;29;19924;-64
2023/01/04 10:27:50;;;;;;;;;;;;;;;7.56;69.68;98858.50;4859363;29;19916;-65
2023/01/04 10:30:35;;;;;;;;;;;;;;;7.55;69.30;98851.59;4860771;29;19995;-64
2023/01/04 10:33:13;;;;;;;;;;;;;;;7.53;69.72;98843.81;4858092;29;19932;-64
2023/01/04 10:35:39;;;;;;;;;;;;;;;7.50;70.22;98843.13;4860834;29;19916;-65
2023/01/04 10:38:10;;;;;;;;;;;;;;;7.46;70.35;98836.34;4854861;29;20385;-66
2023/01/04 10:40:36;;;;;;;;;;;;;;;7.46;71.33;98831.97;4860785;29;20014;-66
2023/01/04 10:43:03;;;;;;;;;;;;;;;7.47;69.88;98822.41;4860093;29;19927;-66
2023/01/04 10:45:36;;;;;;;;;;;;;;;7.50;70.18;98814.41;4858421;29;19932;-65
2023/01/04 10:48:21;;;;;;;;;;;;;;;7.45;69.90;98825.06;4852567;29;20376;-68
2023/01/04 10:50:50;;;;;;;;;;;;;;;7.48;69.80;98824.94;4860816;29;20296;-66
2023/01/04 10:53:35;;;;;;;;;;;;;;;7.55;69.51;98804.59;4858432;29;20369;-65
2023/01/04 10:56:03;;;;;;;;;;;;;;;7.53;69.61;98801.22;4849772;29;19923;-66
2023/01/04 10:58:32;;;;;;;;;;;;;;;7.55;68.84;98796.78;4853561;29;19920;-66
2023/01/04 11:01:03;;;;;;;;;;;;;;;7.54;68.78;98798.53;4858817;29;20287;-67
2023/01/04 11:03:40;;;;;;;;;;;;;;;7.57;69.14;98782.75;4859260;29;19920;-66
2023/01/04 11:06:09;;;;;;;;;;;;;;;7.64;67.79;98788.53;4850977;29;19924;-66
2023/01/04 11:08:44;;;;;;;;;;;;;;;7.67;68.15;98798.78;4854277;29;19924;-67
2023/01/04 11:11:09;;;;;;;;;;;;;;;7.69;68.41;98788.28;4860211;29;19916;-67
2023/01/04 11:13:35;;;;;;;;;;;;;;;7.65;68.72;98790.22;4858647;29;19927;-67
2023/01/04 11:16:01;;;;;;;;;;;;;;;7.68;68.53;98790.06;4861116;29;19916;-68
2023/01/04 11:18:26;;;;;;;;;;;;;;;7.70;69.17;98793.44;4850262;29;19943;-65
2023/01/04 11:20:51;;;;;;;;;;;;;;;7.75;68.77;98780.19;4871629;29;20373;-67
2023/01/04 11:23:17;;;;;;;;;;;;;;;7.78;68.74;98796.53;4857584;29;20399;-68
2023/01/04 11:25:46;;;;;;;;;;;;;;;7.82;68.35;98787.63;4859270;29;20312;-67
2023/01/04 11:28:11;;;;;;;;;;;;;;;7.91;67.50;98780.25;4857036;29;19924;-66
2023/01/04 11:30:46;;;;;;;;;;;;;;;8.01;68.33;98784.13;4860521;29;19920;-65
2023/01/04 11:33:15;;;;;;;;;;;;;;;8.04;68.13;98778.75;4860824;29;20291;-67
2023/01/04 11:35:44;;;;;;;;;;;;;;;8.07;67.46;98770.75;4858210;29;19924;-67
2023/01/04 11:38:19;;;;;;;;;;;;;;;8.14;67.97;98777.38;4860895;29;19920;-67
2023/01/04 11:41:06;;;;;;;;;;;;;;;8.17;66.80;98764.16;4858865;29;19920;-67
2023/01/04 11:43:38;;;;;;;;;;;;;;;8.22;67.78;98763.91;4860663;29;20443;-68
2023/01/04 11:46:03;;;;;;;;;;;;;;;8.30;66.76;98770.47;4857986;29;19923;-65
2023/01/04 11:48:32;;;;;;;;;;;;;;;8.32;67.25;98760.75;4858160;29;19988;-69
2023/01/04 11:50:57;;;;;;;;;;;;;;;10.95;71.60;98752.28;4859504;29;19976;-66
2023/01/04 11:53:24;;;;;;;;;;;;;;;12.44;57.75;98748.81;4860453;29;19916;-67
2023/01/04 11:55:49;;;;;;;;;;;;;;;12.89;57.89;98743.97;4858092;29;19920;-67
2023/01/04 11:58:15;;;;;;;;;;;;;;;13.07;57.12;98724.28;4858499;29;19984;-67
2023/01/04 12:00:50;;;;;;;;;;;;;;;13.17;54.07;98731.50;4857672;29;19978;-67
2023/01/04 12:03:24;;;;;;;;;;;;;;;12.05;53.61;98747.91;4859084;29;20278;-68
2023/01/04 12:05:49;;;;;;;;;;;;;;;11.34;56.32;98734.97;4857497;29;19920;-65
2023/01/04 12:08:24;;;;;;;;;;;;;;;10.64;57.45;98733.16;4859715;29;19931;-67
2023/01/04 12:10:49;;;;;;;;;;;;;;;10.21;59.52;98733.03;4849457;29;19931;-66
2023/01/04 12:13:15;;;;;;;;;;;;;;;9.89;60.34;98715.72;4858369;29;19920;-67
2023/01/04 12:15:51;;;;;;;;;;;;;;;9.67;61.52;98709.09;4859640;29;19924;-68
2023/01/04 12:18:18;;;;;;;;;;;;;;;9.43;63.21;98708.72;4857473;29;20003;-66
2023/01/04 12:20:43;;;;;;;;;;;;;;;9.31;64.10;98693.66;4856136;29;20424;-66
2023/01/04 12:23:09;;;;;;;;;;;;;;;9.28;64.36;98693.84;4852562;29;20015;-66
2023/01/04 12:25:37;;;;;;;;;;;;;;;9.22;64.57;98684.56;4859049;29;19939;-68
2023/01/04 12:28:02;;;;;;;;;;;;;;;9.22;64.53;98684.56;4856383;29;19931;-66
2023/01/04 12:30:33;;;;;;;;;;;;;;;9.22;65.04;98681.94;4851804;29;19924;-65
2023/01/04 12:32:59;;;;;;;;;;;;;;;9.24;64.82;98685.31;4867692;29;19928;-66
2023/01/04 12:35:42;;;;;;;;;;;;;;;9.23;66.11;98686.25;4858159;29;19920;-64
2023/01/04 12:38:08;;;;;;;;;;;;;;;9.27;65.43;98693.00;4850424;29;19924;-67
2023/01/04 12:40:45;;;;;;;;;;;;;;;9.30;65.66;98686.75;4853339;29;20572;-67
2023/01/04 12:43:13;;;;;;;;;;;;;;;9.33;65.82;98675.28;4855820;29;20407;-67
2023/01/04 12:45:39;;;;;;;;;;;;;;;9.42;65.58;98666.88;4859090;29;20452;-68
2023/01/04 12:51:20;;;;;;;;;;;;;;;9.50;65.23;98680.41;4852484;29;19927;-68
2023/01/04 12:53:48;;;;;;;;;;;;;;;9.50;65.86;98670.78;4853108;29;19926;-67
2023/01/04 12:56:13;;;;;;;;;;;;;;;9.50;66.07;98656.84;4856026;29;19975;-68
2023/01/04 12:58:39;;;;;;;;;;;;;;;9.50;65.69;98649.81;4853628;29;19928;-69
2023/01/04 13:01:04;;;;;;;;;;;;;;;9.52;65.75;98649.72;4855480;29;20023;-67
2023/01/04 13:03:29;;;;;;;;;;;;;;;9.44;66.23;98641.47;4857183;29;19959;-68
2023/01/04 13:05:58;;;;;;;;;;;;;;;9.45;66.75;98638.75;4858345;29;19927;-67
2023/01/04 13:08:23;;;;;;;;;;;;;;;9.40;66.95;98630.34;4853775;29;19953;-66
2023/01/04 13:10:50;;;;;;;;;;;;;;;9.32;67.68;98615.97;4854792;29;19924;-68
2023/01/04 13:13:35;;;;;;;;;;;;;;;9.27;67.51;98619.72;4842998;29;19962;-67
2023/01/04 13:16:01;;;;;;;;;;;;;;;9.29;68.01;98622.25;4854206;29;20880;-68
2023/01/04 13:18:32;;;;;;;;;;;;;;;9.29;67.92;98622.25;4856930;29;19924;-67
2023/01/04 13:20:58;;;;;;;;;;;;;;;9.33;68.00;98613.28;4855094;29;19920;-66
2023/01/04 13:23:24;;;;;;;;;;;;;;;9.35;68.14;98600.09;4857437;29;19927;-68
2023/01/04 13:25:49;;;;;;;;;;;;;;;9.33;68.30;98612.44;4858444;29;19958;-67
2023/01/04 13:28:15;;;;;;;;;;;;;;;9.32;68.11;98610.75;4857244;29;19924;-66
2023/01/04 13:30:40;;;;;;;;;;;;;;;9.32;68.54;98613.34;4855801;29;20415;-66
2023/01/04 13:33:06;;;;;;;;;;;;;;;9.28;68.97;98610.06;4856526;29;19920;-67
2023/01/04 13:35:31;;;;;;;;;;;;;;;9.25;69.46;98616.31;4858113;29;19916;-66
2023/01/04 13:37:57;;;;;;;;;;;;;;;9.19;69.75;98618.47;4859081;29;20015;-64
2023/01/04 13:40:26;;;;;;;;;;;;;;;9.19;69.79;98608.84;4859640;29;19920;-66
2023/01/04 13:42:57;;;;;;;;;;;;;;;9.18;69.94;98614.97;4860963;29;19924;-65
2023/01/04 13:45:41;;;;;;;;;;;;;;;9.19;70.16;98608.00;4859536;29;19921;-66
2023/01/04 13:48:11;;;;;;;;;;;;;;;9.20;70.13;98596.59;4862590;29;19968;-66
2023/01/04 13:50:42;;;;;;;;;;;;;;;9.18;70.36;98604.50;4860025;29;19924;-68
2023/01/04 13:53:21;;;;;;;;;;;;;;;9.18;70.18;98591.44;4855869;29;20349;-66
2023/01/04 13:55:53;;;;;;;;;;;;;;;9.22;70.60;98582.50;4861190;29;20428;-66
2023/01/04 13:58:19;;;;;;;;;;;;;;;9.28;70.11;98576.88;4859717;29;19920;-65
2023/01/04 14:00:50;;;;;;;;;;;;;;;9.27;70.52;98561.28;4860862;29;19927;-64
2023/01/04 14:03:34;;;;;;;;;;;;;;;9.24;71.00;98566.69;4862410;29;19934;-66
2023/01/04 14:06:08;;;;;;;;;;;;;;;9.28;71.04;98558.56;4861571;29;19920;-65
2023/01/04 14:08:34;;;;;;;;;;;;;;;9.29;71.29;98554.19;4860312;29;20377;-66
2023/01/04 14:11:00;;;;;;;;;;;;;;;9.26;71.73;98555.22;4858072;29;19931;-67
2023/01/04 14:13:25;;;;;;;;;;;;;;;9.23;71.74;98555.38;4861172;29;19912;-65
2023/01/04 14:16:03;;;;;;;;;;;;;;;9.26;71.96;98554.38;4860831;29;20349;-63
2023/01/04 14:18:28;;;;;;;;;;;;;;;9.28;71.72;98558.56;4859523;29;19927;-65
2023/01/04 14:20:54;;;;;;;;;;;;;;;9.36;71.78;98563.38;4855836;29;19920;-67
2023/01/04 14:23:26;;;;;;;;;;;;;;;9.37;71.67;98572.06;4860294;29;20007;-66
2023/01/04 14:25:55;;;;;;;;;;;;;;;9.37;72.07;98564.22;4860649;29;20277;-64
2023/01/04 14:28:23;;;;;;;;;;;;;;;9.39;72.00;98563.19;4860096;29;20034;-65
2023/01/04 14:30:50;;;;;;;;;;;;;;;9.42;72.24;98575.25;4860524;29;19920;-67
2023/01/04 14:33:16;;;;;;;;;;;;;;;9.43;72.00;98571.72;4860067;29;19928;-67
2023/01/04 14:35:41;;;;;;;;;;;;;;;9.40;72.36;98583.22;4859558;29;19920;-69
2023/01/04 14:38:09;;;;;;;;;;;;;;;9.40;72.43;98582.38;4855817;29;19920;-62
2023/01/04 14:40:35;;;;;;;;;;;;;;;9.42;72.66;98570.00;4862155;29;20006;-67
2023/01/04 14:43:00;;;;;;;;;;;;;;;9.39;73.13;98578.03;4859439;29;20018;-66
2023/01/04 14:45:25;;;;;;;;;;;;;;;9.46;73.08;98567.16;4861495;29;20019;-65
2023/01/04 14:47:50;;;;;;;;;;;;;;;9.46;73.35;98568.91;4859189;29;20023;-66
2023/01/04 14:50:19;;;;;;;;;;;;;;;9.43;73.63;98566.50;4861512;29;19948;-69
2023/01/04 14:52:50;;;;;;;;;;;;;;;9.36;73.69;98567.75;4844923;29;19988;-66
2023/01/04 14:55:16;;;;;;;;;;;;;;;9.32;74.37;98568.84;4859733;29;19972;-69
2023/01/04 14:57:43;;;;;;;;;;;;;;;9.36;74.24;98572.97;4857671;29;19924;-68
2023/01/04 15:00:11;;;;;;;;;;;;;;;9.30;74.85;98570.75;4853068;29;19982;-68
2023/01/04 15:02:37;;;;;;;;;;;;;;;9.26;74.88;98570.91;4846495;29;20301;-67
2023/01/04 15:05:02;;;;;;;;;;;;;;;9.28;74.72;98562.97;4860731;29;19999;-67
2023/01/04 15:07:34;;;;;;;;;;;;;;;9.23;75.10;98560.63;4860251;29;19971;-62
2023/01/04 15:09:59;;;;;;;;;;;;;;;9.20;75.42;98559.94;4849431;29;19931;-68
2023/01/04 15:12:24;;;;;;;;;;;;;;;9.12;75.82;98549.06;4860026;29;19916;-69
2023/01/04 15:14:50;;;;;;;;;;;;;;;9.15;75.99;98544.53;4861282;29;19920;-66
2023/01/04 15:17:15;;;;;;;;;;;;;;;9.26;75.73;98554.38;4859282;29;19920;-65
2023/01/04 15:19:40;;;;;;;;;;;;;;;9.20;76.56;98534.63;4858623;29;19924;-65
2023/01/04 15:22:05;;;;;;;;;;;;;;;9.10;77.38;98528.22;4856486;29;20299;-67
2023/01/04 15:24:31;;;;;;;;;;;;;;;10.80;75.32;98527.53;4859291;29;20307;-67
2023/01/04 15:26:56;;;;;;;;;;;;;;;10.79;71.49;98528.47;4861266;29;20027;-66
2023/01/04 15:29:21;;;;;;;;;;;;;;;10.41;72.43;98513.41;4857966;29;19967;-65
2023/01/04 15:31:46;;;;;;;;;;;;;;;10.03;73.65;98510.50;4860532;29;20017;-67
2023/01/04 15:34:11;;;;;;;;;;;;;;;9.78;74.55;98512.00;4860469;29;20395;-67
2023/01/04 15:36:39;;;;;;;;;;;;;;;9.64;75.28;98523.31;4861263;29;20373;-68
2023/01/04 15:39:04;;;;;;;;;;;;;;;9.44;76.83;98515.81;4860391;29;19928;-65
2023/01/04 15:44:13;;;;;;;;;;;;;;;9.21;78.97;98515.34;4866674;29;19968;-67
2023/01/04 15:46:39;;;;;;;;;;;;;;;9.09;80.35;98523.94;4857833;29;19920;-65
2023/01/04 15:49:04;;;;;;;;;;;;;;;9.00;80.59;98520.06;4860101;29;19924;-66
2023/01/04 15:51:29;;;;;;;;;;;;;;;9.00;80.76;98519.22;4859707;29;19931;-67
2023/01/04 15:53:55;;;;;;;;;;;;;;;8.88;82.27;98527.75;4852098;29;19931;-65
2023/01/04 15:56:20;;;;;;;;;;;;;;;8.78;82.52;98512.59;4858417;29;20010;-65
2023/01/04 15:58:46;;;;;;;;;;;;;;;8.75;82.44;98504.06;4860156;29;20345;-64
2023/01/04 16:01:12;;;;;;;;;;;;;;;8.77;82.96;98507.44;4857588;29;20016;-64
2023/01/04 16:03:37;;;;;;;;;;;;;;;8.69;84.08;98491.34;4855801;29;19931;-67
2023/01/04 16:06:03;;;;;;;;;;;;;;;8.59;84.79;98496.25;4859607;29;19920;-68
2023/01/04 16:08:29;;;;;;;;;;;;;;;8.54;84.70;98488.66;4859154;29;20018;-66
2023/01/04 16:10:54;;;;;;;;;;;;;;;8.56;85.21;98485.94;4859206;29;19991;-67
2023/01/04 16:13:19;;;;;;;;;;;;;;;8.47;85.62;98487.31;4855292;29;20019;-63
2023/01/04 16:15:44;;;;;;;;;;;;;;;8.50;85.38;98487.16;4856299;29;20035;-65
2023/01/04 16:18:10;;;;;;;;;;;;;;;8.51;85.30;98483.59;4860440;29;20011;-64
2023/01/04 16:20:35;;;;;;;;;;;;;;;8.47;85.36;98481.25;4858131;29;19920;-65
2023/01/04 16:23:00;;;;;;;;;;;;;;;8.45;85.79;98470.03;4855390;29;19920;-63
2023/01/04 16:25:25;;;;;;;;;;;;;;;8.45;85.82;98467.41;4859709;29;19956;-64
2023/01/04 16:27:51;;;;;;;;;;;;;;;8.40;86.43;98472.06;4858521;29;19952;-65
2023/01/04 16:30:16;;;;;;;;;;;;;;;8.43;85.82;98458.81;4860233;29;19962;-64
2023/01/04 16:32:42;;;;;;;;;;;;;;;8.40;86.25;98462.44;4858659;29;19955;-63
2023/01/04 16:35:07;;;;;;;;;;;;;;;8.44;86.30;98477.03;4858506;29;19920;-64
2023/01/04 16:37:32;;;;;;;;;;;;;;;8.48;86.21;98468.09;4858511;29;19920;-65
2023/01/04 16:39:58;;;;;;;;;;;;;;;8.40;86.94;98479.91;4858005;29;19927;-65
2023/01/04 16:42:23;;;;;;;;;;;;;;;8.41;86.81;98473.75;4858988;29;20381;-64
2023/01/04 16:44:48;;;;;;;;;;;;;;;8.39;87.01;98472.97;4855276;29;19920;-65
2023/01/04 16:47:14;;;;;;;;;;;;;;;8.38;87.04;98481.75;4859941;29;19916;-64
2023/01/04 16:49:39;;;;;;;;;;;;;;;8.47;86.57;98481.25;4859271;29;19927;-65
2023/01/04 16:52:09;;;;;;;;;;;;;;;8.43;86.14;98477.09;4860019;29;20404;-64
2023/01/04 16:54:34;;;;;;;;;;;;;;;8.40;87.21;98482.53;4841641;29;19923;-62
2023/01/04 16:56:59;;;;;;;;;;;;;;;8.37;86.89;98477.44;4853607;29;19927;-63
2023/01/04 16:59:24;;;;;;;;;;;;;;;8.40;86.45;98482.53;4859510;29;19916;-66
2023/01/04 17:01:51;;;;;;;;;;;;;;;8.36;86.63;98473.94;4859478;29;19924;-64
2023/01/04 17:04:16;;;;;;;;;;;;;;;8.37;86.69;98469.59;4859811;29;19972;-64
2023/01/04 17:06:42;;;;;;;;;;;;;;;8.38;87.02;98463.47;4856203;29;20292;-65
2023/01/04 17:09:08;;;;;;;;;;;;;;;8.32;87.87;98452.38;4858021;29;20026;-63
2023/01/04 17:11:34;;;;;;;;;;;;;;;8.29;87.70;98457.78;4857676;29;19923;-67
2023/01/04 17:13:59;;;;;;;;;;;;;;;8.33;88.84;98469.75;4860322;29;20110;-67
2023/01/04 17:16:25;;;;;;;;;;;;;;;8.37;87.91;98466.97;4845158;29;19922;-67
2023/01/04 17:18:50;;;;;;;;;;;;;;;8.40;87.50;98469.47;4862152;29;19928;-64
2023/01/04 17:21:16;;;;;;;;;;;;;;;8.38;87.33;98468.69;4860618;29;19920;-65
2023/01/04 17:23:42;;;;;;;;;;;;;;;8.32;88.00;98454.97;4861075;29;19920;-65
2023/01/04 17:26:08;;;;;;;;;;;;;;;8.33;87.68;98458.47;4863321;29;20015;-66
2023/01/04 17:28:34;;;;;;;;;;;;;;;8.37;87.54;98459.97;4860607;29;20000;-65
2023/01/04 17:31:02;;;;;;;;;;;;;;;8.39;87.08;98463.34;4861920;29;20360;-66
2023/01/04 17:33:27;;;;;;;;;;;;;;;8.41;87.27;98456.28;4861623;29;19916;-65
2023/01/04 17:35:52;;;;;;;;;;;;;;;8.39;87.88;98452.06;4861295;29;20177;-65
2023/01/04 17:38:17;;;;;;;;;;;;;;;8.38;87.68;98455.63;4861699;29;19920;-63
2023/01/04 17:40:43;;;;;;;;;;;;;;;8.35;87.91;98432.22;4859235;29;19920;-65
2023/01/04 17:43:08;;;;;;;;;;;;;;;8.32;88.29;98434.06;4862704;29;19976;-65
2023/01/04 17:45:33;;;;;;;;;;;;;;;8.29;88.68;98426.44;4860874;29;20039;-66
2023/01/04 17:47:58;;;;;;;;;;;;;;;8.28;88.27;98427.34;4860985;29;19932;-65
2023/01/04 17:50:24;;;;;;;;;;;;;;;8.38;88.25;98424.25;4860421;29;19932;-65
2023/01/04 17:52:52;;;;;;;;;;;;;;;8.34;88.09;98428.78;4862904;29;20289;-64
2023/01/04 17:55:17;;;;;;;;;;;;;;;8.35;87.74;98430.44;4859492;29;19920;-63
2023/01/04 17:57:42;;;;;;;;;;;;;;;8.33;87.99;98419.25;4861424;29;19916;-67
2023/01/04 18:00:08;;;;;;;;;;;;;;;8.37;87.76;98423.38;4860199;29;20041;-64
2023/01/04 18:02:34;;;;;;;;;;;;;;;8.44;87.37;98423.91;4861893;29;19920;-65
2023/01/04 18:04:59;;;;;;;;;;;;;;;8.41;87.30;98426.69;4861560;29;19920;-64
2023/01/04 18:07:25;;;;;;;;;;;;;;;8.41;87.47;98424.09;4861625;29;19947;-66
2023/01/04 18:09:50;;;;;;;;;;;;;;;8.41;87.61;98419.69;4857496;29;19936;-65
2023/01/04 18:12:16;;;;;;;;;;;;;;;8.46;87.49;98427.25;4858984;29;19930;-65
2023/01/04 18:14:41;;;;;;;;;;;;;;;8.46;87.69;98427.25;4844742;29;20285;-65
2023/01/04 18:17:07;;;;;;;;;;;;;;;8.50;87.29;98431.41;4862471;29;20002;-64
2023/01/04 18:19:32;;;;;;;;;;;;;;;8.51;87.85;98425.25;4861715;29;20345;-66
2023/01/04 18:21:57;;;;;;;;;;;;;;;8.69;88.46;98413.72;4854166;29;20493;-63
2023/01/04 18:24:22;;;;;;;;;;;;;;;8.58;87.86;98418.75;4852557;29;20313;-65
2023/01/04 18:26:48;;;;;;;;;;;;;;;8.55;88.10;98416.28;4853031;29;20350;-65
2023/01/04 18:29:13;;;;;;;;;;;;;;;8.50;88.97;98423.56;4861111;29;19932;-64
2023/01/04 18:31:38;;;;;;;;;;;;;;;8.54;88.14;98417.25;4860654;29;19920;-63
2023/01/04 18:34:03;;;;;;;;;;;;;;;8.56;88.10;98413.59;4858596;29;19920;-64
2023/01/04 18:36:29;;;;;;;;;;;;;;;8.49;88.36;98416.63;4859941;29;19920;-66
2023/01/04 18:38:55;;;;;;;;;;;;;;;8.46;88.74;98419.41;4861043;29;19923;-64
2023/01/04 18:41:20;;;;;;;;;;;;;;;8.53;88.03;98418.16;4859261;29;19928;-65
2023/01/04 18:43:49;;;;;;;;;;;;;;;8.48;89.12;98422.81;4856069;29;19946;-64
2023/01/04 18:46:14;;;;;;;;;;;;;;;8.49;88.65;98408.78;4859784;29;20015;-64
2023/01/04 18:48:39;;;;;;;;;;;;;;;8.47;89.03;98402.84;4860053;29;20015;-64
2023/01/04 18:51:09;;;;;;;;;;;;;;;8.46;88.88;98406.34;4859108;29;19921;-64
2023/01/04 18:53:34;;;;;;;;;;;;;;;8.46;89.49;98403.75;4858551;29;20403;-64
2023/01/04 18:56:02;;;;;;;;;;;;;;;8.48;89.26;98397.50;4854575;29;19920;-63
2023/01/04 18:58:27;;;;;;;;;;;;;;;8.49;89.10;98396.56;4859588;29;19920;-63
2023/01/04 19:01:03;;;;;;;;;;;;;;;8.56;88.47;98403.13;4860254;29;19968;-65
2023/01/04 19:03:28;;;;;;;;;;;;;;;8.63;88.05;98406.22;4859632;29;19920;-65
2023/01/04 19:05:53;;;;;;;;;;;;;;;8.63;88.04;98403.63;4846852;29;19927;-63
2023/01/04 19:08:19;;;;;;;;;;;;;;;8.57;88.70;98401.38;4860416;29;20026;-66
2023/01/04 19:10:44;;;;;;;;;;;;;;;8.63;88.05;98411.47;4859496;29;20003;-65
2023/01/04 19:13:10;;;;;;;;;;;;;;;8.62;88.15;98408.94;4859442;29;20019;-64
2023/01/04 19:15:35;;;;;;;;;;;;;;;8.73;87.03;98409.16;4859671;29;19920;-66
2023/01/04 19:18:00;;;;;;;;;;;;;;;8.77;87.14;98411.53;4859379;29;19924;-63
2023/01/04 19:20:25;;;;;;;;;;;;;;;8.81;87.47;98417.44;4858137;29;19943;-63
2023/01/04 19:22:51;;;;;;;;;;;;;;;8.75;88.38;98397.69;4859380;29;19924;-64
2023/01/04 19:25:16;;;;;;;;;;;;;;;8.76;87.50;98420.28;4857201;29;19928;-65